PWSweather.com
Personal Weather Stations
Station Observations
PICKERING
North Yorkshire, PickeringGB

North YorkshirePickeringGB

Lat: 54.2494, Lon: -0.7725

Elevation: 192

Station Type: Oregon Scientific WMR100

http://www.yorkshirewalker.co.uk/weather/

Latest ConditionsUpdated 8:55:01 PM GMT Wednesday, Apr 24, 2019
Currently Today's Max Today's Min Today's Average
Temperature 55.0°F12.8°C 73.8°F23.2°C 43.3°F6.3°C 57.6°F14.2°C
Dew Point 42.8°F6.0°C 55.4°F13.0°C 35.6°F2.0°C 45.3°F7.4°C
Winds 5.1 mph S8.2 kmh S 8.1 mph -13.0 kmh - - 4.4 mph 7.1 kmh
Wind Gusts 8.7 mph14.0 kmh 13.2 mph21.2 kmh - -
Humidity 62% 78% 48% 63%
Pressure 29.30 in992.2 mb 29.39 in995.3 mb 29.21 in989.2 mb -
Hour Temp Dew Point Humidity Winds Wind Gusts Pressure Precip Precip Rate Daily Precip Total
08:55 PM 55.0°F12.8°C 42.8°F6.0°C 62% 5.1 mph S8.2 kmh S 8.7 mph14.0 kmh 29.30 in992.2 mb 0.00 in0.0 mm 0.00 in0.0 mm 0.00 in0.0 mm
08:50 PM 55.2°F12.9°C 42.8°F6.0°C 62% 4.9 mph S7.9 kmh S 6.3 mph10.1 kmh 29.30 in992.2 mb 0.00 in0.0 mm 0.00 in0.0 mm 0.00 in0.0 mm
08:45 PM 55.4°F13.0°C 42.8°F6.0°C 62% 4.8 mph S7.7 kmh S 6.3 mph10.1 kmh 29.30 in992.2 mb 0.00 in0.0 mm 0.00 in0.0 mm 0.00 in0.0 mm
08:40 PM 55.6°F13.1°C 42.8°F6.0°C 62% 4.9 mph S7.9 kmh S 8.5 mph13.7 kmh 29.30 in992.2 mb 0.00 in0.0 mm 0.00 in0.0 mm 0.00 in0.0 mm
08:35 PM 55.6°F13.1°C 42.8°F6.0°C 62% 4.1 mph S6.6 kmh S 8.5 mph13.7 kmh 29.30 in992.2 mb 0.00 in0.0 mm 0.00 in0.0 mm 0.00 in0.0 mm
08:30 PM 55.6°F13.1°C 42.8°F6.0°C 62% 3.4 mph S5.5 kmh S 6.9 mph11.1 kmh 29.30 in992.2 mb 0.00 in0.0 mm 0.00 in0.0 mm 0.00 in0.0 mm
08:25 PM 55.8°F13.2°C 44.6°F7.0°C 63% 3.8 mph S6.1 kmh S 6.9 mph11.1 kmh 29.30 in992.2 mb 0.00 in0.0 mm 0.00 in0.0 mm 0.00 in0.0 mm
08:20 PM 55.9°F13.3°C 42.8°F6.0°C 62% 4.4 mph S7.1 kmh S 7.4 mph11.9 kmh 29.30 in992.2 mb 0.00 in0.0 mm 0.00 in0.0 mm 0.00 in0.0 mm
08:15 PM 56.1°F13.4°C 42.8°F6.0°C 62% 4.5 mph S7.2 kmh S 7.4 mph11.9 kmh 29.30 in992.2 mb 0.00 in0.0 mm 0.00 in0.0 mm 0.00 in0.0 mm
08:10 PM 56.5°F13.6°C 44.6°F7.0°C 62% 3.8 mph SSE6.1 kmh SSE 5.6 mph9.0 kmh 29.30 in992.2 mb 0.00 in0.0 mm 0.00 in0.0 mm 0.00 in0.0 mm
08:05 PM 56.7°F13.7°C 44.6°F7.0°C 62% 4.2 mph S6.8 kmh S 10.7 mph17.2 kmh 29.30 in992.2 mb 0.00 in0.0 mm 0.00 in0.0 mm 0.00 in0.0 mm
08:00 PM 56.8°F13.8°C 44.6°F7.0°C 62% 5.1 mph SSW8.2 kmh SSW 10.7 mph17.2 kmh 29.30 in992.2 mb 0.00 in0.0 mm 0.00 in0.0 mm 0.00 in0.0 mm
07:55 PM 57.0°F13.9°C 44.6°F7.0°C 62% 5.2 mph S8.4 kmh S 10.7 mph17.2 kmh 29.30 in992.2 mb 0.00 in0.0 mm 0.00 in0.0 mm 0.00 in0.0 mm
07:50 PM 57.2°F14.0°C 44.6°F7.0°C 62% 4.6 mph S7.4 kmh S 10.7 mph17.2 kmh 29.27 in991.2 mb 0.00 in0.0 mm 0.00 in0.0 mm 0.00 in0.0 mm
07:45 PM 57.2°F14.0°C 44.6°F7.0°C 62% 3.9 mph S6.3 kmh S 6.7 mph10.8 kmh 29.27 in991.2 mb 0.00 in0.0 mm 0.00 in0.0 mm 0.00 in0.0 mm
07:40 PM 57.4°F14.1°C 44.6°F7.0°C 62% 4.9 mph S7.9 kmh S 8.1 mph13.0 kmh 29.27 in991.2 mb 0.00 in0.0 mm 0.00 in0.0 mm 0.00 in0.0 mm
07:35 PM 57.7°F14.3°C 44.6°F7.0°C 62% 5.0 mph S8.0 kmh S 8.1 mph13.0 kmh 29.27 in991.2 mb 0.00 in0.0 mm 0.00 in0.0 mm 0.00 in0.0 mm
07:30 PM 57.9°F14.4°C 44.6°F7.0°C 62% 4.4 mph S7.1 kmh S 8.7 mph14.0 kmh 29.27 in991.2 mb 0.00 in0.0 mm 0.00 in0.0 mm 0.00 in0.0 mm
07:25 PM 57.9°F14.4°C 44.6°F7.0°C 62% 5.9 mph S9.5 kmh S 13.2 mph21.2 kmh 29.27 in991.2 mb 0.00 in0.0 mm 0.00 in0.0 mm 0.00 in0.0 mm
07:20 PM 58.3°F14.6°C 46.4°F8.0°C 62% 6.9 mph SSW11.1 kmh SSW 13.2 mph21.2 kmh 29.27 in991.2 mb 0.00 in0.0 mm 0.00 in0.0 mm 0.00 in0.0 mm
07:15 PM 58.5°F14.7°C 46.4°F8.0°C 63% 5.8 mph SSW9.3 kmh SSW 8.5 mph13.7 kmh 29.27 in991.2 mb 0.00 in0.0 mm 0.00 in0.0 mm 0.00 in0.0 mm
07:10 PM 58.6°F14.8°C 46.4°F8.0°C 63% 6.3 mph S10.1 kmh S 10.7 mph17.2 kmh 29.27 in991.2 mb 0.00 in0.0 mm 0.00 in0.0 mm 0.00 in0.0 mm
07:05 PM 59.0°F15.0°C 48.2°F9.0°C 64% 6.2 mph SSW10.0 kmh SSW 10.7 mph17.2 kmh 29.27 in991.2 mb 0.00 in0.0 mm 0.00 in0.0 mm 0.00 in0.0 mm
07:00 PM 59.5°F15.3°C 48.2°F9.0°C 65% 6.1 mph SW9.8 kmh SW 10.7 mph17.2 kmh 29.27 in991.2 mb 0.00 in0.0 mm 0.00 in0.0 mm 0.00 in0.0 mm
06:55 PM 59.7°F15.4°C 48.2°F9.0°C 65% 5.3 mph SSW8.5 kmh SSW 10.3 mph16.6 kmh 29.27 in991.2 mb 0.00 in0.0 mm 0.00 in0.0 mm 0.00 in0.0 mm
06:50 PM 60.4°F15.8°C 48.2°F9.0°C 64% 5.5 mph S8.9 kmh S 10.3 mph16.6 kmh 29.27 in991.2 mb 0.00 in0.0 mm 0.00 in0.0 mm 0.00 in0.0 mm
06:45 PM 61.0°F16.1°C 48.2°F9.0°C 63% 6.8 mph SSE10.9 kmh SSE 10.3 mph16.6 kmh 29.27 in991.2 mb 0.00 in0.0 mm 0.00 in0.0 mm 0.00 in0.0 mm
06:40 PM 61.0°F16.1°C 48.2°F9.0°C 63% 7.7 mph SE12.4 kmh SE 10.5 mph16.9 kmh 29.27 in991.2 mb 0.00 in0.0 mm 0.00 in0.0 mm 0.00 in0.0 mm
06:35 PM 61.0°F16.1°C 48.2°F9.0°C 63% 7.2 mph SE11.6 kmh SE 10.5 mph16.9 kmh 29.24 in990.2 mb 0.00 in0.0 mm 0.00 in0.0 mm 0.00 in0.0 mm
06:30 PM 61.2°F16.2°C 48.2°F9.0°C 62% 6.3 mph SE10.1 kmh SE 8.5 mph13.7 kmh 29.24 in990.2 mb 0.00 in0.0 mm 0.00 in0.0 mm 0.00 in0.0 mm
06:25 PM 61.3°F16.3°C 48.2°F9.0°C 62% 6.7 mph SE10.8 kmh SE 10.1 mph16.3 kmh 29.24 in990.2 mb 0.00 in0.0 mm 0.00 in0.0 mm 0.00 in0.0 mm
06:20 PM 61.3°F16.3°C 48.2°F9.0°C 62% 7.1 mph SE11.4 kmh SE 10.1 mph16.3 kmh 29.21 in989.2 mb 0.00 in0.0 mm 0.00 in0.0 mm 0.00 in0.0 mm
06:15 PM 61.3°F16.3°C 48.2°F9.0°C 61% 7.2 mph SE11.6 kmh SE 11.9 mph19.2 kmh 29.21 in989.2 mb 0.00 in0.0 mm 0.00 in0.0 mm 0.00 in0.0 mm
06:10 PM 61.3°F16.3°C 48.2°F9.0°C 61% 7.2 mph SE11.6 kmh SE 11.9 mph19.2 kmh 29.21 in989.2 mb 0.00 in0.0 mm 0.00 in0.0 mm 0.00 in0.0 mm
06:05 PM 61.3°F16.3°C 48.2°F9.0°C 61% 6.3 mph SE10.1 kmh SE 9.8 mph15.8 kmh 29.21 in989.2 mb 0.00 in0.0 mm 0.00 in0.0 mm 0.00 in0.0 mm
06:00 PM 61.3°F16.3°C 48.2°F9.0°C 60% 6.6 mph SE10.6 kmh SE 10.7 mph17.2 kmh 29.21 in989.2 mb 0.00 in0.0 mm 0.00 in0.0 mm 0.00 in0.0 mm
05:55 PM 61.5°F16.4°C 48.2°F9.0°C 60% 7.8 mph SE12.6 kmh SE 12.8 mph20.6 kmh 29.21 in989.2 mb 0.00 in0.0 mm 0.00 in0.0 mm 0.00 in0.0 mm
05:50 PM 62.1°F16.7°C 48.2°F9.0°C 59% 7.6 mph SE12.2 kmh SE 12.8 mph20.6 kmh 29.21 in989.2 mb 0.00 in0.0 mm 0.00 in0.0 mm 0.00 in0.0 mm
05:45 PM 62.2°F16.8°C 48.2°F9.0°C 59% 7.5 mph SE12.1 kmh SE 12.8 mph20.6 kmh 29.21 in989.2 mb 0.00 in0.0 mm 0.00 in0.0 mm 0.00 in0.0 mm
05:40 PM 62.6°F17.0°C 48.2°F9.0°C 57% 8.0 mph SE12.9 kmh SE 11.4 mph18.3 kmh 29.21 in989.2 mb 0.00 in0.0 mm 0.00 in0.0 mm 0.00 in0.0 mm
05:35 PM 63.0°F17.2°C 48.2°F9.0°C 56% 7.3 mph SE11.7 kmh SE 11.4 mph18.3 kmh 29.21 in989.2 mb 0.00 in0.0 mm 0.00 in0.0 mm 0.00 in0.0 mm
05:30 PM 63.0°F17.2°C 48.2°F9.0°C 56% 6.3 mph SE10.1 kmh SE 11.4 mph18.3 kmh 29.21 in989.2 mb 0.00 in0.0 mm 0.00 in0.0 mm 0.00 in0.0 mm
05:25 PM 63.3°F17.4°C 48.2°F9.0°C 56% 5.5 mph SE8.9 kmh SE 7.8 mph12.6 kmh 29.21 in989.2 mb 0.00 in0.0 mm 0.00 in0.0 mm 0.00 in0.0 mm
05:20 PM 64.0°F17.8°C 48.2°F9.0°C 55% 5.0 mph SE8.0 kmh SE 6.5 mph10.5 kmh 29.21 in989.2 mb 0.00 in0.0 mm 0.00 in0.0 mm 0.00 in0.0 mm
05:15 PM 64.8°F18.2°C 48.2°F9.0°C 54% 5.0 mph SE8.0 kmh SE 7.6 mph12.2 kmh 29.21 in989.2 mb 0.00 in0.0 mm 0.00 in0.0 mm 0.00 in0.0 mm
05:10 PM 64.6°F18.1°C 48.2°F9.0°C 54% 5.5 mph E8.9 kmh E 8.9 mph14.3 kmh 29.21 in989.2 mb 0.00 in0.0 mm 0.00 in0.0 mm 0.00 in0.0 mm
05:05 PM 64.8°F18.2°C 48.2°F9.0°C 54% 5.3 mph E8.5 kmh E 8.9 mph14.3 kmh 29.21 in989.2 mb 0.00 in0.0 mm 0.00 in0.0 mm 0.00 in0.0 mm
05:00 PM 65.1°F18.4°C 48.2°F9.0°C 53% 6.0 mph E9.7 kmh E 8.7 mph14.0 kmh 29.21 in989.2 mb 0.00 in0.0 mm 0.00 in0.0 mm 0.00 in0.0 mm
04:55 PM 65.5°F18.6°C 48.2°F9.0°C 53% 7.1 mph E11.4 kmh E 9.6 mph15.4 kmh 29.21 in989.2 mb 0.00 in0.0 mm 0.00 in0.0 mm 0.00 in0.0 mm
04:50 PM 65.8°F18.8°C 48.2°F9.0°C 53% 7.4 mph E11.9 kmh E 10.3 mph16.6 kmh 29.21 in989.2 mb 0.00 in0.0 mm 0.00 in0.0 mm 0.00 in0.0 mm
04:45 PM 66.2°F19.0°C 48.2°F9.0°C 53% 7.5 mph E12.1 kmh E 10.3 mph16.6 kmh 29.21 in989.2 mb 0.00 in0.0 mm 0.00 in0.0 mm 0.00 in0.0 mm
04:40 PM 66.9°F19.4°C 48.2°F9.0°C 52% 6.1 mph E9.8 kmh E 10.3 mph16.6 kmh 29.21 in989.2 mb 0.00 in0.0 mm 0.00 in0.0 mm 0.00 in0.0 mm
04:35 PM 67.1°F19.5°C 50.0°F10.0°C 52% 5.0 mph E8.0 kmh E 8.7 mph14.0 kmh 29.24 in990.2 mb 0.00 in0.0 mm 0.00 in0.0 mm 0.00 in0.0 mm
04:30 PM 67.5°F19.7°C 50.0°F10.0°C 53% 5.7 mph ESE9.2 kmh ESE 10.5 mph16.9 kmh 29.24 in990.2 mb 0.00 in0.0 mm 0.00 in0.0 mm 0.00 in0.0 mm
04:25 PM 67.6°F19.8°C 50.0°F10.0°C 52% 6.8 mph SE10.9 kmh SE 10.5 mph16.9 kmh 29.24 in990.2 mb 0.00 in0.0 mm 0.00 in0.0 mm 0.00 in0.0 mm
04:20 PM 67.8°F19.9°C 50.0°F10.0°C 52% 6.1 mph ESE9.8 kmh ESE 10.3 mph16.6 kmh 29.21 in989.2 mb 0.00 in0.0 mm 0.00 in0.0 mm 0.00 in0.0 mm
04:15 PM 67.6°F19.8°C 50.0°F10.0°C 52% 4.9 mph E7.9 kmh E 6.5 mph10.5 kmh 29.21 in989.2 mb 0.00 in0.0 mm 0.00 in0.0 mm 0.00 in0.0 mm
04:10 PM 68.0°F20.0°C 50.0°F10.0°C 52% 5.1 mph ESE8.2 kmh ESE 8.1 mph13.0 kmh 29.21 in989.2 mb 0.00 in0.0 mm 0.00 in0.0 mm 0.00 in0.0 mm
04:05 PM 68.0°F20.0°C 50.0°F10.0°C 52% 5.4 mph E8.7 kmh E 9.4 mph15.1 kmh 29.24 in990.2 mb 0.00 in0.0 mm 0.00 in0.0 mm 0.00 in0.0 mm
04:00 PM 67.8°F19.9°C 50.0°F10.0°C 52% 5.5 mph E8.9 kmh E 9.4 mph15.1 kmh 29.24 in990.2 mb 0.00 in0.0 mm 0.00 in0.0 mm 0.00 in0.0 mm
03:55 PM 67.6°F19.8°C 48.2°F9.0°C 51% 6.3 mph ESE10.1 kmh ESE 8.5 mph13.7 kmh 29.24 in990.2 mb 0.00 in0.0 mm 0.00 in0.0 mm 0.00 in0.0 mm
03:50 PM 67.8°F19.9°C 50.0°F10.0°C 51% 6.4 mph E10.3 kmh E 8.5 mph13.7 kmh 29.24 in990.2 mb 0.00 in0.0 mm 0.00 in0.0 mm 0.00 in0.0 mm
03:45 PM 68.2°F20.1°C 50.0°F10.0°C 51% 6.1 mph E9.8 kmh E 10.7 mph17.2 kmh 29.24 in990.2 mb 0.00 in0.0 mm 0.00 in0.0 mm 0.00 in0.0 mm
03:40 PM 68.5°F20.3°C 50.0°F10.0°C 51% 5.2 mph E8.4 kmh E 10.7 mph17.2 kmh 29.24 in990.2 mb 0.00 in0.0 mm 0.00 in0.0 mm 0.00 in0.0 mm
03:35 PM 69.3°F20.7°C 50.0°F10.0°C 51% 5.2 mph E8.4 kmh E 8.5 mph13.7 kmh 29.21 in989.2 mb 0.00 in0.0 mm 0.00 in0.0 mm 0.00 in0.0 mm
03:30 PM 69.1°F20.6°C 50.0°F10.0°C 51% 5.9 mph E9.5 kmh E 10.1 mph16.3 kmh 29.21 in989.2 mb 0.00 in0.0 mm 0.00 in0.0 mm 0.00 in0.0 mm
03:25 PM 69.4°F20.8°C 50.0°F10.0°C 51% 5.4 mph ESE8.7 kmh ESE 10.1 mph16.3 kmh 29.21 in989.2 mb 0.00 in0.0 mm 0.00 in0.0 mm 0.00 in0.0 mm
03:20 PM 69.8°F21.0°C 50.0°F10.0°C 50% 4.8 mph ESE7.7 kmh ESE 7.8 mph12.6 kmh 29.24 in990.2 mb 0.00 in0.0 mm 0.00 in0.0 mm 0.00 in0.0 mm
03:15 PM 69.4°F20.8°C 50.0°F10.0°C 50% 5.0 mph ESE8.0 kmh ESE 7.8 mph12.6 kmh 29.24 in990.2 mb 0.00 in0.0 mm 0.00 in0.0 mm 0.00 in0.0 mm
03:10 PM 69.8°F21.0°C 50.0°F10.0°C 49% 5.1 mph E8.2 kmh E 7.4 mph11.9 kmh 29.24 in990.2 mb 0.00 in0.0 mm 0.00 in0.0 mm 0.00 in0.0 mm
03:05 PM 70.3°F21.3°C 50.0°F10.0°C 49% 5.3 mph SE8.5 kmh SE 7.8 mph12.6 kmh 29.24 in990.2 mb 0.00 in0.0 mm 0.00 in0.0 mm 0.00 in0.0 mm
03:00 PM 70.7°F21.5°C 51.8°F11.0°C 49% 5.5 mph SE8.9 kmh SE 7.8 mph12.6 kmh 29.24 in990.2 mb 0.00 in0.0 mm 0.00 in0.0 mm 0.00 in0.0 mm
02:55 PM 71.4°F21.9°C 51.8°F11.0°C 49% 6.4 mph E10.3 kmh E 10.1 mph16.3 kmh 29.24 in990.2 mb 0.00 in0.0 mm 0.00 in0.0 mm 0.00 in0.0 mm
02:50 PM 72.5°F22.5°C 53.6°F12.0°C 49% 7.5 mph SE12.1 kmh SE 11.0 mph17.7 kmh 29.24 in990.2 mb 0.00 in0.0 mm 0.00 in0.0 mm 0.00 in0.0 mm
02:45 PM 72.7°F22.6°C 53.6°F12.0°C 49% 7.9 mph SSE12.7 kmh SSE 11.0 mph17.7 kmh 29.24 in990.2 mb 0.00 in0.0 mm 0.00 in0.0 mm 0.00 in0.0 mm
02:40 PM 72.0°F22.2°C 51.8°F11.0°C 49% 6.6 mph SE10.6 kmh SE 10.1 mph16.3 kmh 29.24 in990.2 mb 0.00 in0.0 mm 0.00 in0.0 mm 0.00 in0.0 mm
02:35 PM 72.1°F22.3°C 51.8°F11.0°C 49% 4.9 mph E7.9 kmh E 8.1 mph13.0 kmh 29.24 in990.2 mb 0.00 in0.0 mm 0.00 in0.0 mm 0.00 in0.0 mm
02:30 PM 71.8°F22.1°C 51.8°F11.0°C 49% 4.6 mph E7.4 kmh E 8.1 mph13.0 kmh 29.24 in990.2 mb 0.00 in0.0 mm 0.00 in0.0 mm 0.00 in0.0 mm
02:25 PM 72.0°F22.2°C 51.8°F11.0°C 49% 5.1 mph E8.2 kmh E 8.7 mph14.0 kmh 29.24 in990.2 mb 0.00 in0.0 mm 0.00 in0.0 mm 0.00 in0.0 mm
02:20 PM 72.3°F22.4°C 51.8°F11.0°C 49% 5.4 mph ESE8.7 kmh ESE 8.7 mph14.0 kmh 29.24 in990.2 mb 0.00 in0.0 mm 0.00 in0.0 mm 0.00 in0.0 mm
02:15 PM 72.0°F22.2°C 51.8°F11.0°C 49% 5.5 mph SE8.9 kmh SE 8.7 mph14.0 kmh 29.24 in990.2 mb 0.00 in0.0 mm 0.00 in0.0 mm 0.00 in0.0 mm
02:10 PM 70.7°F21.5°C 51.8°F11.0°C 49% 5.1 mph SE8.2 kmh SE 8.5 mph13.7 kmh 29.24 in990.2 mb 0.00 in0.0 mm 0.00 in0.0 mm 0.00 in0.0 mm
02:05 PM 71.2°F21.8°C 51.8°F11.0°C 49% 4.8 mph SE7.7 kmh SE 7.4 mph11.9 kmh 29.24 in990.2 mb 0.00 in0.0 mm 0.00 in0.0 mm 0.00 in0.0 mm
02:00 PM 70.9°F21.6°C 51.8°F11.0°C 49% 5.0 mph ESE8.0 kmh ESE 7.8 mph12.6 kmh 29.24 in990.2 mb 0.00 in0.0 mm 0.00 in0.0 mm 0.00 in0.0 mm
01:55 PM 72.1°F22.3°C 51.8°F11.0°C 49% 5.5 mph E8.9 kmh E 7.8 mph12.6 kmh 29.24 in990.2 mb 0.00 in0.0 mm 0.00 in0.0 mm 0.00 in0.0 mm
01:50 PM 73.8°F23.2°C 53.6°F12.0°C 48% 5.8 mph E9.3 kmh E 7.8 mph12.6 kmh 29.24 in990.2 mb 0.00 in0.0 mm 0.00 in0.0 mm 0.00 in0.0 mm
01:45 PM 73.8°F23.2°C 53.6°F12.0°C 48% 5.8 mph E9.3 kmh E 8.1 mph13.0 kmh 29.24 in990.2 mb 0.00 in0.0 mm 0.00 in0.0 mm 0.00 in0.0 mm
01:40 PM 73.2°F22.9°C 53.6°F12.0°C 49% 5.6 mph E9.0 kmh E 8.1 mph13.0 kmh 29.24 in990.2 mb 0.00 in0.0 mm 0.00 in0.0 mm 0.00 in0.0 mm
01:35 PM 72.9°F22.7°C 53.6°F12.0°C 49% 5.3 mph NE8.5 kmh NE 8.7 mph14.0 kmh 29.24 in990.2 mb 0.00 in0.0 mm 0.00 in0.0 mm 0.00 in0.0 mm
01:30 PM 72.3°F22.4°C 51.8°F11.0°C 49% 5.6 mph E9.0 kmh E 8.7 mph14.0 kmh 29.24 in990.2 mb 0.00 in0.0 mm 0.00 in0.0 mm 0.00 in0.0 mm
01:25 PM 70.7°F21.5°C 51.8°F11.0°C 50% 4.8 mph SE7.7 kmh SE 8.1 mph13.0 kmh 29.24 in990.2 mb 0.00 in0.0 mm 0.00 in0.0 mm 0.00 in0.0 mm
01:20 PM 70.5°F21.4°C 51.8°F11.0°C 50% 5.6 mph ESE9.0 kmh ESE 7.6 mph12.2 kmh 29.24 in990.2 mb 0.00 in0.0 mm 0.00 in0.0 mm 0.00 in0.0 mm
01:15 PM 71.1°F21.7°C 51.8°F11.0°C 50% 5.7 mph SE9.2 kmh SE 7.6 mph12.2 kmh 29.24 in990.2 mb 0.00 in0.0 mm 0.00 in0.0 mm 0.00 in0.0 mm
01:10 PM 72.0°F22.2°C 53.6°F12.0°C 50% 5.2 mph ESE8.4 kmh ESE 8.7 mph14.0 kmh 29.24 in990.2 mb 0.00 in0.0 mm 0.00 in0.0 mm 0.00 in0.0 mm
01:05 PM 70.0°F21.1°C 51.8°F11.0°C 51% 6.5 mph SE10.5 kmh SE 9.6 mph15.4 kmh 29.24 in990.2 mb 0.00 in0.0 mm 0.00 in0.0 mm 0.00 in0.0 mm
01:00 PM 69.6°F20.9°C 51.8°F11.0°C 51% 6.2 mph SE10.0 kmh SE 9.6 mph15.4 kmh 29.24 in990.2 mb 0.00 in0.0 mm 0.00 in0.0 mm 0.00 in0.0 mm
12:55 PM 70.2°F21.2°C 51.8°F11.0°C 51% 5.7 mph SE9.2 kmh SE 8.1 mph13.0 kmh 29.24 in990.2 mb 0.00 in0.0 mm 0.00 in0.0 mm 0.00 in0.0 mm
12:50 PM 70.0°F21.1°C 51.8°F11.0°C 51% 7.2 mph SSE11.6 kmh SSE 11.9 mph19.2 kmh 29.27 in991.2 mb 0.00 in0.0 mm 0.00 in0.0 mm 0.00 in0.0 mm
12:45 PM 68.2°F20.1°C 50.0°F10.0°C 52% 6.9 mph SSE11.1 kmh SSE 11.9 mph19.2 kmh 29.27 in991.2 mb 0.00 in0.0 mm 0.00 in0.0 mm 0.00 in0.0 mm
12:40 PM 68.7°F20.4°C 50.0°F10.0°C 51% 6.4 mph SE10.3 kmh SE 7.6 mph12.2 kmh 29.27 in991.2 mb 0.00 in0.0 mm 0.00 in0.0 mm 0.00 in0.0 mm
12:35 PM 69.3°F20.7°C 50.0°F10.0°C 51% 7.1 mph SE11.4 kmh SE 7.6 mph12.2 kmh 29.24 in990.2 mb 0.00 in0.0 mm 0.00 in0.0 mm 0.00 in0.0 mm
12:30 PM 70.5°F21.4°C 51.8°F11.0°C 50% 7.1 mph SE11.4 kmh SE 10.1 mph16.3 kmh 29.24 in990.2 mb 0.00 in0.0 mm 0.00 in0.0 mm 0.00 in0.0 mm
12:25 PM 71.6°F22.0°C 51.8°F11.0°C 50% 6.7 mph SE10.8 kmh SE 10.1 mph16.3 kmh 29.24 in990.2 mb 0.00 in0.0 mm 0.00 in0.0 mm 0.00 in0.0 mm
12:20 PM 71.6°F22.0°C 53.6°F12.0°C 51% 6.4 mph ESE10.3 kmh ESE 7.8 mph12.6 kmh 29.24 in990.2 mb 0.00 in0.0 mm 0.00 in0.0 mm 0.00 in0.0 mm
12:15 PM 73.0°F22.8°C 53.6°F12.0°C 50% 6.7 mph ESE10.8 kmh ESE 10.3 mph16.6 kmh 29.24 in990.2 mb 0.00 in0.0 mm 0.00 in0.0 mm 0.00 in0.0 mm
12:10 PM 71.8°F22.1°C 53.6°F12.0°C 51% 8.1 mph ESE13.0 kmh ESE 10.7 mph17.2 kmh 29.24 in990.2 mb 0.00 in0.0 mm 0.00 in0.0 mm 0.00 in0.0 mm
12:05 PM 71.8°F22.1°C 53.6°F12.0°C 51% 7.9 mph ESE12.7 kmh ESE 10.7 mph17.2 kmh 29.24 in990.2 mb 0.00 in0.0 mm 0.00 in0.0 mm 0.00 in0.0 mm
12:00 PM 71.8°F22.1°C 53.6°F12.0°C 51% 7.2 mph ESE11.6 kmh ESE 10.7 mph17.2 kmh 29.24 in990.2 mb 0.00 in0.0 mm 0.00 in0.0 mm 0.00 in0.0 mm
11:55 AM 71.4°F21.9°C 53.6°F12.0°C 52% 5.9 mph E9.5 kmh E 9.8 mph15.8 kmh 29.24 in990.2 mb 0.00 in0.0 mm 0.00 in0.0 mm 0.00 in0.0 mm
11:50 AM 70.3°F21.3°C 51.8°F11.0°C 52% 5.7 mph E9.2 kmh E 9.6 mph15.4 kmh 29.27 in991.2 mb 0.00 in0.0 mm 0.00 in0.0 mm 0.00 in0.0 mm
11:45 AM 71.6°F22.0°C 53.6°F12.0°C 51% 6.4 mph E10.3 kmh E 9.6 mph15.4 kmh 29.27 in991.2 mb 0.00 in0.0 mm 0.00 in0.0 mm 0.00 in0.0 mm
11:40 AM 72.7°F22.6°C 55.4°F13.0°C 52% 6.9 mph ESE11.1 kmh ESE 7.8 mph12.6 kmh 29.27 in991.2 mb 0.00 in0.0 mm 0.00 in0.0 mm 0.00 in0.0 mm
11:35 AM 72.1°F22.3°C 53.6°F12.0°C 52% 6.9 mph SE11.1 kmh SE 7.8 mph12.6 kmh 29.24 in990.2 mb 0.00 in0.0 mm 0.00 in0.0 mm 0.00 in0.0 mm
11:30 AM 72.5°F22.5°C 55.4°F13.0°C 53% 5.5 mph ESE8.9 kmh ESE 7.6 mph12.2 kmh 29.24 in990.2 mb 0.00 in0.0 mm 0.00 in0.0 mm 0.00 in0.0 mm
11:25 AM 71.6°F22.0°C 53.6°F12.0°C 53% 5.2 mph ESE8.4 kmh ESE 8.7 mph14.0 kmh 29.24 in990.2 mb 0.00 in0.0 mm 0.00 in0.0 mm 0.00 in0.0 mm
11:20 AM 70.7°F21.5°C 53.6°F12.0°C 53% 5.0 mph SE8.0 kmh SE 8.7 mph14.0 kmh 29.27 in991.2 mb 0.00 in0.0 mm 0.00 in0.0 mm 0.00 in0.0 mm
11:15 AM 70.0°F21.1°C 53.6°F12.0°C 55% 4.5 mph SE7.2 kmh SE 8.7 mph14.0 kmh 29.27 in991.2 mb 0.00 in0.0 mm 0.00 in0.0 mm 0.00 in0.0 mm
11:10 AM 68.4°F20.2°C 51.8°F11.0°C 56% 3.9 mph ESE6.3 kmh ESE 7.4 mph11.9 kmh 29.27 in991.2 mb 0.00 in0.0 mm 0.00 in0.0 mm 0.00 in0.0 mm
11:05 AM 69.1°F20.6°C 53.6°F12.0°C 56% 3.9 mph E6.3 kmh E 7.6 mph12.2 kmh 29.27 in991.2 mb 0.00 in0.0 mm 0.00 in0.0 mm 0.00 in0.0 mm
11:00 AM 69.1°F20.6°C 53.6°F12.0°C 56% 4.8 mph E7.7 kmh E 7.6 mph12.2 kmh 29.27 in991.2 mb 0.00 in0.0 mm 0.00 in0.0 mm 0.00 in0.0 mm
10:55 AM 68.5°F20.3°C 53.6°F12.0°C 57% 4.4 mph E7.1 kmh E 6.0 mph9.7 kmh 29.27 in991.2 mb 0.00 in0.0 mm 0.00 in0.0 mm 0.00 in0.0 mm
10:50 AM 68.7°F20.4°C 53.6°F12.0°C 57% 4.4 mph E7.1 kmh E 8.5 mph13.7 kmh 29.27 in991.2 mb 0.00 in0.0 mm 0.00 in0.0 mm 0.00 in0.0 mm
10:45 AM 67.3°F19.6°C 53.6°F12.0°C 59% 4.4 mph E7.1 kmh E 8.5 mph13.7 kmh 29.27 in991.2 mb 0.00 in0.0 mm 0.00 in0.0 mm 0.00 in0.0 mm
10:40 AM 65.1°F18.4°C 51.8°F11.0°C 60% 4.4 mph ESE7.1 kmh ESE 6.3 mph10.1 kmh 29.27 in991.2 mb 0.00 in0.0 mm 0.00 in0.0 mm 0.00 in0.0 mm
10:35 AM 64.6°F18.1°C 50.0°F10.0°C 61% 4.5 mph SE7.2 kmh SE 6.3 mph10.1 kmh 29.27 in991.2 mb 0.00 in0.0 mm 0.00 in0.0 mm 0.00 in0.0 mm
10:30 AM 64.0°F17.8°C 50.0°F10.0°C 61% 5.0 mph SE8.0 kmh SE 7.4 mph11.9 kmh 29.27 in991.2 mb 0.00 in0.0 mm 0.00 in0.0 mm 0.00 in0.0 mm
10:25 AM 63.5°F17.5°C 50.0°F10.0°C 61% 5.7 mph SE9.2 kmh SE 7.4 mph11.9 kmh 29.27 in991.2 mb 0.00 in0.0 mm 0.00 in0.0 mm 0.00 in0.0 mm
10:20 AM 63.5°F17.5°C 50.0°F10.0°C 61% 5.6 mph SE9.0 kmh SE 7.6 mph12.2 kmh 29.27 in991.2 mb 0.00 in0.0 mm 0.00 in0.0 mm 0.00 in0.0 mm
10:15 AM 65.1°F18.4°C 51.8°F11.0°C 60% 4.7 mph SE7.6 kmh SE 7.6 mph12.2 kmh 29.27 in991.2 mb 0.00 in0.0 mm 0.00 in0.0 mm 0.00 in0.0 mm
10:10 AM 67.1°F19.5°C 53.6°F12.0°C 59% 4.2 mph ESE6.8 kmh ESE 6.0 mph9.7 kmh 29.27 in991.2 mb 0.00 in0.0 mm 0.00 in0.0 mm 0.00 in0.0 mm
10:05 AM 67.1°F19.5°C 53.6°F12.0°C 59% 3.9 mph E6.3 kmh E 6.0 mph9.7 kmh 29.27 in991.2 mb 0.00 in0.0 mm 0.00 in0.0 mm 0.00 in0.0 mm
10:00 AM 66.2°F19.0°C 51.8°F11.0°C 60% 3.7 mph E6.0 kmh E 6.0 mph9.7 kmh 29.27 in991.2 mb 0.00 in0.0 mm 0.00 in0.0 mm 0.00 in0.0 mm
09:55 AM 64.4°F18.0°C 51.8°F11.0°C 62% 4.0 mph ENE6.4 kmh ENE 6.3 mph10.1 kmh 29.27 in991.2 mb 0.00 in0.0 mm 0.00 in0.0 mm 0.00 in0.0 mm
09:50 AM 64.6°F18.1°C 51.8°F11.0°C 62% 4.9 mph ENE7.9 kmh ENE 8.5 mph13.7 kmh 29.27 in991.2 mb 0.00 in0.0 mm 0.00 in0.0 mm 0.00 in0.0 mm
09:45 AM 64.2°F17.9°C 51.8°F11.0°C 62% 4.9 mph ENE7.9 kmh ENE 8.5 mph13.7 kmh 29.27 in991.2 mb 0.00 in0.0 mm 0.00 in0.0 mm 0.00 in0.0 mm
09:40 AM 64.2°F17.9°C 51.8°F11.0°C 63% 4.0 mph ENE6.4 kmh ENE 5.4 mph8.7 kmh 29.27 in991.2 mb 0.00 in0.0 mm 0.00 in0.0 mm 0.00 in0.0 mm
09:35 AM 63.1°F17.3°C 51.8°F11.0°C 64% 3.9 mph E6.3 kmh E 5.6 mph9.0 kmh 29.27 in991.2 mb 0.00 in0.0 mm 0.00 in0.0 mm 0.00 in0.0 mm
09:30 AM 61.5°F16.4°C 50.0°F10.0°C 65% 4.2 mph E6.8 kmh E 7.2 mph11.6 kmh 29.27 in991.2 mb 0.00 in0.0 mm 0.00 in0.0 mm 0.00 in0.0 mm
09:25 AM 61.2°F16.2°C 50.0°F10.0°C 66% 4.5 mph NE7.2 kmh NE 7.6 mph12.2 kmh 29.27 in991.2 mb 0.00 in0.0 mm 0.00 in0.0 mm 0.00 in0.0 mm
09:20 AM 60.8°F16.0°C 50.0°F10.0°C 66% 4.3 mph NE6.9 kmh NE 7.6 mph12.2 kmh 29.27 in991.2 mb 0.00 in0.0 mm 0.00 in0.0 mm 0.00 in0.0 mm
09:15 AM 60.3°F15.7°C 50.0°F10.0°C 67% 4.9 mph NE7.9 kmh NE 7.8 mph12.6 kmh 29.27 in991.2 mb 0.00 in0.0 mm 0.00 in0.0 mm 0.00 in0.0 mm
09:10 AM 58.3°F14.6°C 48.2°F9.0°C 68% 5.7 mph NE9.2 kmh NE 7.8 mph12.6 kmh 29.27 in991.2 mb 0.00 in0.0 mm 0.00 in0.0 mm 0.00 in0.0 mm
09:05 AM 57.7°F14.3°C 48.2°F9.0°C 68% 5.1 mph ENE8.2 kmh ENE 8.5 mph13.7 kmh 29.27 in991.2 mb 0.00 in0.0 mm 0.00 in0.0 mm 0.00 in0.0 mm
09:00 AM 58.1°F14.5°C 48.2°F9.0°C 69% 4.8 mph ENE7.7 kmh ENE 8.5 mph13.7 kmh 29.27 in991.2 mb 0.00 in0.0 mm 0.00 in0.0 mm 0.00 in0.0 mm
08:55 AM 57.9°F14.4°C 48.2°F9.0°C 69% 4.5 mph NE7.2 kmh NE 7.4 mph11.9 kmh 29.27 in991.2 mb 0.00 in0.0 mm 0.00 in0.0 mm 0.00 in0.0 mm
08:50 AM 56.7°F13.7°C 48.2°F9.0°C 70% 4.7 mph ENE7.6 kmh ENE 7.4 mph11.9 kmh 29.27 in991.2 mb 0.00 in0.0 mm 0.00 in0.0 mm 0.00 in0.0 mm
08:45 AM 56.1°F13.4°C 46.4°F8.0°C 70% 4.7 mph ENE7.6 kmh ENE 6.5 mph10.5 kmh 29.27 in991.2 mb 0.00 in0.0 mm 0.00 in0.0 mm 0.00 in0.0 mm
08:40 AM 55.8°F13.2°C 46.4°F8.0°C 70% 4.6 mph E7.4 kmh E 6.0 mph9.7 kmh 29.27 in991.2 mb 0.00 in0.0 mm 0.00 in0.0 mm 0.00 in0.0 mm
08:35 AM 55.9°F13.3°C 48.2°F9.0°C 71% 4.8 mph E7.7 kmh E 7.4 mph11.9 kmh 29.27 in991.2 mb 0.00 in0.0 mm 0.00 in0.0 mm 0.00 in0.0 mm
08:30 AM 56.1°F13.4°C 48.2°F9.0°C 71% 4.2 mph ENE6.8 kmh ENE 7.4 mph11.9 kmh 29.27 in991.2 mb 0.00 in0.0 mm 0.00 in0.0 mm 0.00 in0.0 mm
08:25 AM 56.3°F13.5°C 48.2°F9.0°C 72% 4.0 mph ENE6.4 kmh ENE 7.8 mph12.6 kmh 29.27 in991.2 mb 0.00 in0.0 mm 0.00 in0.0 mm 0.00 in0.0 mm
08:20 AM 55.8°F13.2°C 48.2°F9.0°C 72% 4.9 mph E7.9 kmh E 7.8 mph12.6 kmh 29.27 in991.2 mb 0.00 in0.0 mm 0.00 in0.0 mm 0.00 in0.0 mm
08:15 AM 55.4°F13.0°C 48.2°F9.0°C 73% 4.8 mph ENE7.7 kmh ENE 7.2 mph11.6 kmh 29.27 in991.2 mb 0.00 in0.0 mm 0.00 in0.0 mm 0.00 in0.0 mm
08:10 AM 54.7°F12.6°C 46.4°F8.0°C 73% 3.7 mph NE6.0 kmh NE 6.5 mph10.5 kmh 29.27 in991.2 mb 0.00 in0.0 mm 0.00 in0.0 mm 0.00 in0.0 mm
08:05 AM 54.3°F12.4°C 46.4°F8.0°C 74% 3.3 mph NE5.3 kmh NE 6.0 mph9.7 kmh 29.27 in991.2 mb 0.00 in0.0 mm 0.00 in0.0 mm 0.00 in0.0 mm
08:00 AM 54.0°F12.2°C 46.4°F8.0°C 74% 3.3 mph ENE5.3 kmh ENE 6.0 mph9.7 kmh 29.27 in991.2 mb 0.00 in0.0 mm 0.00 in0.0 mm 0.00 in0.0 mm
07:55 AM 53.6°F12.0°C 46.4°F8.0°C 75% 3.3 mph NE5.3 kmh NE 6.0 mph9.7 kmh 29.27 in991.2 mb 0.00 in0.0 mm 0.00 in0.0 mm 0.00 in0.0 mm
07:50 AM 53.1°F11.7°C 46.4°F8.0°C 75% 3.5 mph NE5.6 kmh NE 6.0 mph9.7 kmh 29.27 in991.2 mb 0.00 in0.0 mm 0.00 in0.0 mm 0.00 in0.0 mm
07:45 AM 52.7°F11.5°C 46.4°F8.0°C 75% 3.3 mph NE5.3 kmh NE 4.7 mph7.6 kmh 29.27 in991.2 mb 0.00 in0.0 mm 0.00 in0.0 mm 0.00 in0.0 mm
07:40 AM 52.3°F11.3°C 44.6°F7.0°C 76% 3.5 mph NE5.6 kmh NE 4.9 mph7.9 kmh 29.27 in991.2 mb 0.00 in0.0 mm 0.00 in0.0 mm 0.00 in0.0 mm
07:35 AM 52.0°F11.1°C 44.6°F7.0°C 76% 4.4 mph ENE7.1 kmh ENE 6.3 mph10.1 kmh 29.27 in991.2 mb 0.00 in0.0 mm 0.00 in0.0 mm 0.00 in0.0 mm
07:30 AM 51.4°F10.8°C 44.6°F7.0°C 76% 4.7 mph ENE7.6 kmh ENE 6.3 mph10.1 kmh 29.27 in991.2 mb 0.00 in0.0 mm 0.00 in0.0 mm 0.00 in0.0 mm
07:25 AM 50.9°F10.5°C 44.6°F7.0°C 76% 3.9 mph ENE6.3 kmh ENE 6.0 mph9.7 kmh 29.27 in991.2 mb 0.00 in0.0 mm 0.00 in0.0 mm 0.00 in0.0 mm
07:20 AM 50.4°F10.2°C 44.6°F7.0°C 77% 2.8 mph NE4.5 kmh NE 4.0 mph6.4 kmh 29.27 in991.2 mb 0.00 in0.0 mm 0.00 in0.0 mm 0.00 in0.0 mm
07:15 AM 49.8°F9.9°C 42.8°F6.0°C 77% 2.2 mph NE3.5 kmh NE 2.9 mph4.7 kmh 29.27 in991.2 mb 0.00 in0.0 mm 0.00 in0.0 mm 0.00 in0.0 mm
07:10 AM 49.3°F9.6°C 42.8°F6.0°C 77% 2.2 mph NE3.5 kmh NE 3.1 mph5.0 kmh 29.27 in991.2 mb 0.00 in0.0 mm 0.00 in0.0 mm 0.00 in0.0 mm
07:05 AM 48.9°F9.4°C 42.8°F6.0°C 77% 2.4 mph NE3.9 kmh NE 3.4 mph5.5 kmh 29.30 in992.2 mb 0.00 in0.0 mm 0.00 in0.0 mm 0.00 in0.0 mm
07:00 AM 48.7°F9.3°C 42.8°F6.0°C 77% 2.8 mph NE4.5 kmh NE 4.0 mph6.4 kmh 29.30 in992.2 mb 0.00 in0.0 mm 0.00 in0.0 mm 0.00 in0.0 mm
06:50 AM 48.2°F9.0°C 42.8°F6.0°C 77% 2.4 mph NE3.9 kmh NE 3.6 mph5.8 kmh 29.30 in992.2 mb 0.00 in0.0 mm 0.00 in0.0 mm 0.00 in0.0 mm
06:45 AM 47.8°F8.8°C 42.8°F6.0°C 78% 2.4 mph NE3.9 kmh NE 3.4 mph5.5 kmh 29.30 in992.2 mb 0.00 in0.0 mm 0.00 in0.0 mm 0.00 in0.0 mm
06:40 AM 47.7°F8.7°C 41.0°F5.0°C 78% 2.5 mph NE4.0 kmh NE 3.4 mph5.5 kmh 29.30 in992.2 mb 0.00 in0.0 mm 0.00 in0.0 mm 0.00 in0.0 mm
06:35 AM 47.3°F8.5°C 41.0°F5.0°C 78% 1.9 mph NE3.1 kmh NE 2.9 mph4.7 kmh 29.30 in992.2 mb 0.00 in0.0 mm 0.00 in0.0 mm 0.00 in0.0 mm
06:30 AM 46.8°F8.2°C 41.0°F5.0°C 78% 1.6 mph NE2.6 kmh NE 2.9 mph4.7 kmh 29.30 in992.2 mb 0.00 in0.0 mm 0.00 in0.0 mm 0.00 in0.0 mm
06:25 AM 46.6°F8.1°C 41.0°F5.0°C 78% 1.7 mph NE2.7 kmh NE 2.9 mph4.7 kmh 29.30 in992.2 mb 0.00 in0.0 mm 0.00 in0.0 mm 0.00 in0.0 mm
06:20 AM 46.4°F8.0°C 41.0°F5.0°C 77% 1.6 mph NE2.6 kmh NE 3.1 mph5.0 kmh 29.30 in992.2 mb 0.00 in0.0 mm 0.00 in0.0 mm 0.00 in0.0 mm
06:15 AM 46.0°F7.8°C 39.2°F4.0°C 77% 1.2 mph NE1.9 kmh NE 3.1 mph5.0 kmh 29.30 in992.2 mb 0.00 in0.0 mm 0.00 in0.0 mm 0.00 in0.0 mm
06:10 AM 45.5°F7.5°C 39.2°F4.0°C 77% 1.0 mph NNE1.6 kmh NNE 2.0 mph3.2 kmh 29.30 in992.2 mb 0.00 in0.0 mm 0.00 in0.0 mm 0.00 in0.0 mm
06:05 AM 45.3°F7.4°C 39.2°F4.0°C 77% 1.4 mph NNE2.3 kmh NNE 2.7 mph4.3 kmh 29.27 in991.2 mb 0.00 in0.0 mm 0.00 in0.0 mm 0.00 in0.0 mm
06:00 AM 45.1°F7.3°C 39.2°F4.0°C 77% 1.7 mph NNE2.7 kmh NNE 3.1 mph5.0 kmh 29.27 in991.2 mb 0.00 in0.0 mm 0.00 in0.0 mm 0.00 in0.0 mm
05:55 AM 45.0°F7.2°C 39.2°F4.0°C 77% 2.2 mph NE3.5 kmh NE 3.4 mph5.5 kmh 29.27 in991.2 mb 0.00 in0.0 mm 0.00 in0.0 mm 0.00 in0.0 mm
05:50 AM 44.8°F7.1°C 37.4°F3.0°C 77% 2.1 mph NE3.4 kmh NE 3.4 mph5.5 kmh 29.30 in992.2 mb 0.00 in0.0 mm 0.00 in0.0 mm 0.00 in0.0 mm
05:45 AM 44.4°F6.9°C 37.4°F3.0°C 77% 2.3 mph NE3.7 kmh NE 3.6 mph5.8 kmh 29.30 in992.2 mb 0.00 in0.0 mm 0.00 in0.0 mm 0.00 in0.0 mm
05:40 AM 44.2°F6.8°C 37.4°F3.0°C 77% 2.7 mph NE4.3 kmh NE 3.6 mph5.8 kmh 29.30 in992.2 mb 0.00 in0.0 mm 0.00 in0.0 mm 0.00 in0.0 mm
05:35 AM 44.1°F6.7°C 37.4°F3.0°C 76% 2.0 mph NE3.2 kmh NE 3.1 mph5.0 kmh 29.30 in992.2 mb 0.00 in0.0 mm 0.00 in0.0 mm 0.00 in0.0 mm
05:30 AM 43.9°F6.6°C 37.4°F3.0°C 76% 2.0 mph NE3.2 kmh NE 2.9 mph4.7 kmh 29.30 in992.2 mb 0.00 in0.0 mm 0.00 in0.0 mm 0.00 in0.0 mm
05:25 AM 43.7°F6.5°C 37.4°F3.0°C 76% 1.9 mph NE3.1 kmh NE 2.9 mph4.7 kmh 29.30 in992.2 mb 0.00 in0.0 mm 0.00 in0.0 mm 0.00 in0.0 mm
05:20 AM 43.7°F6.5°C 37.4°F3.0°C 76% 1.8 mph NNE2.9 kmh NNE 3.4 mph5.5 kmh 29.30 in992.2 mb 0.00 in0.0 mm 0.00 in0.0 mm 0.00 in0.0 mm
05:15 AM 43.7°F6.5°C 37.4°F3.0°C 76% 2.0 mph NE3.2 kmh NE 3.4 mph5.5 kmh 29.30 in992.2 mb 0.00 in0.0 mm 0.00 in0.0 mm 0.00 in0.0 mm
05:10 AM 43.5°F6.4°C 37.4°F3.0°C 76% 2.0 mph NE3.2 kmh NE 2.9 mph4.7 kmh 29.30 in992.2 mb 0.00 in0.0 mm 0.00 in0.0 mm 0.00 in0.0 mm
05:05 AM 43.5°F6.4°C 37.4°F3.0°C 76% 2.4 mph NE3.9 kmh NE 3.4 mph5.5 kmh 29.30 in992.2 mb 0.00 in0.0 mm 0.00 in0.0 mm 0.00 in0.0 mm
05:00 AM 43.3°F6.3°C 37.4°F3.0°C 75% 2.4 mph NE3.9 kmh NE 3.4 mph5.5 kmh 29.30 in992.2 mb 0.00 in0.0 mm 0.00 in0.0 mm 0.00 in0.0 mm
04:55 AM 43.3°F6.3°C 37.4°F3.0°C 75% 2.0 mph NE3.2 kmh NE 3.4 mph5.5 kmh 29.30 in992.2 mb 0.00 in0.0 mm 0.00 in0.0 mm 0.00 in0.0 mm
04:50 AM 43.3°F6.3°C 37.4°F3.0°C 75% 2.4 mph NE3.9 kmh NE 3.4 mph5.5 kmh 29.30 in992.2 mb 0.00 in0.0 mm 0.00 in0.0 mm 0.00 in0.0 mm
04:45 AM 43.3°F6.3°C 37.4°F3.0°C 75% 2.5 mph NE4.0 kmh NE 3.1 mph5.0 kmh 29.30 in992.2 mb 0.00 in0.0 mm 0.00 in0.0 mm 0.00 in0.0 mm
04:40 AM 43.3°F6.3°C 37.4°F3.0°C 75% 2.4 mph NE3.9 kmh NE 3.6 mph5.8 kmh 29.30 in992.2 mb 0.00 in0.0 mm 0.00 in0.0 mm 0.00 in0.0 mm
04:35 AM 43.3°F6.3°C 37.4°F3.0°C 75% 2.5 mph NE4.0 kmh NE 3.6 mph5.8 kmh 29.30 in992.2 mb 0.00 in0.0 mm 0.00 in0.0 mm 0.00 in0.0 mm
04:30 AM 43.3°F6.3°C 37.4°F3.0°C 75% 2.4 mph NE3.9 kmh NE 3.6 mph5.8 kmh 29.30 in992.2 mb 0.00 in0.0 mm 0.00 in0.0 mm 0.00 in0.0 mm
04:25 AM 43.3°F6.3°C 37.4°F3.0°C 75% 2.3 mph NE3.7 kmh NE 3.4 mph5.5 kmh 29.30 in992.2 mb 0.00 in0.0 mm 0.00 in0.0 mm 0.00 in0.0 mm
04:20 AM 43.5°F6.4°C 37.4°F3.0°C 75% 2.2 mph NE3.5 kmh NE 2.7 mph4.3 kmh 29.30 in992.2 mb 0.00 in0.0 mm 0.00 in0.0 mm 0.00 in0.0 mm
04:15 AM 43.5°F6.4°C 37.4°F3.0°C 75% 2.3 mph NE3.7 kmh NE 3.8 mph6.1 kmh 29.30 in992.2 mb 0.00 in0.0 mm 0.00 in0.0 mm 0.00 in0.0 mm
04:10 AM 43.5°F6.4°C 37.4°F3.0°C 75% 2.2 mph NE3.5 kmh NE 3.8 mph6.1 kmh 29.30 in992.2 mb 0.00 in0.0 mm 0.00 in0.0 mm 0.00 in0.0 mm
04:05 AM 43.7°F6.5°C 37.4°F3.0°C 75% 2.1 mph NE3.4 kmh NE 3.1 mph5.0 kmh 29.30 in992.2 mb 0.00 in0.0 mm 0.00 in0.0 mm 0.00 in0.0 mm
04:00 AM 43.7°F6.5°C 37.4°F3.0°C 75% 2.4 mph NE3.9 kmh NE 3.1 mph5.0 kmh 29.30 in992.2 mb 0.00 in0.0 mm 0.00 in0.0 mm 0.00 in0.0 mm
03:55 AM 43.7°F6.5°C 37.4°F3.0°C 74% 2.5 mph NE4.0 kmh NE 3.1 mph5.0 kmh 29.30 in992.2 mb 0.00 in0.0 mm 0.00 in0.0 mm 0.00 in0.0 mm
03:50 AM 43.7°F6.5°C 37.4°F3.0°C 74% 2.1 mph NE3.4 kmh NE 3.1 mph5.0 kmh 29.33 in993.2 mb 0.00 in0.0 mm 0.00 in0.0 mm 0.00 in0.0 mm
03:45 AM 43.9°F6.6°C 37.4°F3.0°C 74% 2.3 mph NE3.7 kmh NE 3.4 mph5.5 kmh 29.33 in993.2 mb 0.00 in0.0 mm 0.00 in0.0 mm 0.00 in0.0 mm
03:40 AM 43.9°F6.6°C 37.4°F3.0°C 74% 2.9 mph NNE4.7 kmh NNE 3.8 mph6.1 kmh 29.33 in993.2 mb 0.00 in0.0 mm 0.00 in0.0 mm 0.00 in0.0 mm
03:35 AM 43.7°F6.5°C 37.4°F3.0°C 74% 2.6 mph NNE4.2 kmh NNE 3.8 mph6.1 kmh 29.33 in993.2 mb 0.00 in0.0 mm 0.00 in0.0 mm 0.00 in0.0 mm
03:30 AM 43.7°F6.5°C 37.4°F3.0°C 74% 2.2 mph NNE3.5 kmh NNE 3.6 mph5.8 kmh 29.33 in993.2 mb 0.00 in0.0 mm 0.00 in0.0 mm 0.00 in0.0 mm
03:25 AM 43.7°F6.5°C 37.4°F3.0°C 74% 2.2 mph NE3.5 kmh NE 3.1 mph5.0 kmh 29.33 in993.2 mb 0.00 in0.0 mm 0.00 in0.0 mm 0.00 in0.0 mm
03:20 AM 43.9°F6.6°C 35.6°F2.0°C 73% 2.9 mph NNE4.7 kmh NNE 3.6 mph5.8 kmh 29.33 in993.2 mb 0.00 in0.0 mm 0.00 in0.0 mm 0.00 in0.0 mm
03:15 AM 43.9°F6.6°C 35.6°F2.0°C 73% 2.7 mph NE4.3 kmh NE 3.6 mph5.8 kmh 29.33 in993.2 mb 0.00 in0.0 mm 0.00 in0.0 mm 0.00 in0.0 mm
03:10 AM 44.1°F6.7°C 35.6°F2.0°C 73% 2.6 mph NE4.2 kmh NE 3.4 mph5.5 kmh 29.33 in993.2 mb 0.00 in0.0 mm 0.00 in0.0 mm 0.00 in0.0 mm
03:05 AM 44.1°F6.7°C 35.6°F2.0°C 73% 2.9 mph NE4.7 kmh NE 3.4 mph5.5 kmh 29.33 in993.2 mb 0.00 in0.0 mm 0.00 in0.0 mm 0.00 in0.0 mm
03:00 AM 44.1°F6.7°C 35.6°F2.0°C 73% 2.7 mph NE4.3 kmh NE 3.4 mph5.5 kmh 29.33 in993.2 mb 0.00 in0.0 mm 0.00 in0.0 mm 0.00 in0.0 mm
02:55 AM 44.1°F6.7°C 35.6°F2.0°C 73% 2.5 mph NE4.0 kmh NE 3.1 mph5.0 kmh 29.33 in993.2 mb 0.00 in0.0 mm 0.00 in0.0 mm 0.00 in0.0 mm
02:50 AM 44.2°F6.8°C 35.6°F2.0°C 73% 2.1 mph NE3.4 kmh NE 2.9 mph4.7 kmh 29.33 in993.2 mb 0.00 in0.0 mm 0.00 in0.0 mm 0.00 in0.0 mm
02:45 AM 44.2°F6.8°C 35.6°F2.0°C 73% 2.1 mph NE3.4 kmh NE 3.1 mph5.0 kmh 29.33 in993.2 mb 0.00 in0.0 mm 0.00 in0.0 mm 0.00 in0.0 mm
02:40 AM 44.4°F6.9°C 37.4°F3.0°C 72% 2.4 mph NE3.9 kmh NE 3.6 mph5.8 kmh 29.33 in993.2 mb 0.00 in0.0 mm 0.00 in0.0 mm 0.00 in0.0 mm
02:35 AM 44.4°F6.9°C 37.4°F3.0°C 72% 2.5 mph NE4.0 kmh NE 3.6 mph5.8 kmh 29.33 in993.2 mb 0.00 in0.0 mm 0.00 in0.0 mm 0.00 in0.0 mm
02:30 AM 44.6°F7.0°C 37.4°F3.0°C 72% 2.8 mph NE4.5 kmh NE 3.8 mph6.1 kmh 29.33 in993.2 mb 0.00 in0.0 mm 0.00 in0.0 mm 0.00 in0.0 mm
02:25 AM 44.6°F7.0°C 37.4°F3.0°C 72% 3.2 mph NE5.1 kmh NE 4.7 mph7.6 kmh 29.33 in993.2 mb 0.00 in0.0 mm 0.00 in0.0 mm 0.00 in0.0 mm
02:20 AM 44.6°F7.0°C 37.4°F3.0°C 72% 2.9 mph NE4.7 kmh NE 4.7 mph7.6 kmh 29.33 in993.2 mb 0.00 in0.0 mm 0.00 in0.0 mm 0.00 in0.0 mm
02:15 AM 44.6°F7.0°C 37.4°F3.0°C 72% 2.3 mph NE3.7 kmh NE 3.8 mph6.1 kmh 29.33 in993.2 mb 0.00 in0.0 mm 0.00 in0.0 mm 0.00 in0.0 mm
02:10 AM 44.6°F7.0°C 37.4°F3.0°C 72% 1.9 mph NE3.1 kmh NE 3.4 mph5.5 kmh 29.33 in993.2 mb 0.00 in0.0 mm 0.00 in0.0 mm 0.00 in0.0 mm
02:05 AM 44.8°F7.1°C 35.6°F2.0°C 71% 1.9 mph NE3.1 kmh NE 2.7 mph4.3 kmh 29.36 in994.2 mb 0.00 in0.0 mm 0.00 in0.0 mm 0.00 in0.0 mm
02:00 AM 44.8°F7.1°C 35.6°F2.0°C 71% 2.3 mph NE3.7 kmh NE 3.4 mph5.5 kmh 29.36 in994.2 mb 0.00 in0.0 mm 0.00 in0.0 mm 0.00 in0.0 mm
01:55 AM 45.0°F7.2°C 37.4°F3.0°C 71% 1.5 mph NE2.4 kmh NE 3.4 mph5.5 kmh 29.36 in994.2 mb 0.00 in0.0 mm 0.00 in0.0 mm 0.00 in0.0 mm
01:50 AM 45.1°F7.3°C 37.4°F3.0°C 71% 1.5 mph NE2.4 kmh NE 3.4 mph5.5 kmh 29.36 in994.2 mb 0.00 in0.0 mm 0.00 in0.0 mm 0.00 in0.0 mm
01:45 AM 45.3°F7.4°C 37.4°F3.0°C 71% 2.7 mph NE4.3 kmh NE 3.6 mph5.8 kmh 29.36 in994.2 mb 0.00 in0.0 mm 0.00 in0.0 mm 0.00 in0.0 mm
01:40 AM 45.5°F7.5°C 37.4°F3.0°C 71% 3.5 mph NNE5.6 kmh NNE 4.9 mph7.9 kmh 29.36 in994.2 mb 0.00 in0.0 mm 0.00 in0.0 mm 0.00 in0.0 mm
01:35 AM 45.5°F7.5°C 37.4°F3.0°C 70% 4.3 mph NE6.9 kmh NE 6.5 mph10.5 kmh 29.36 in994.2 mb 0.00 in0.0 mm 0.00 in0.0 mm 0.00 in0.0 mm
01:30 AM 45.7°F7.6°C 37.4°F3.0°C 70% 4.2 mph NE6.8 kmh NE 6.5 mph10.5 kmh 29.36 in994.2 mb 0.00 in0.0 mm 0.00 in0.0 mm 0.00 in0.0 mm
01:25 AM 45.7°F7.6°C 37.4°F3.0°C 70% 3.7 mph NE6.0 kmh NE 4.9 mph7.9 kmh 29.36 in994.2 mb 0.00 in0.0 mm 0.00 in0.0 mm 0.00 in0.0 mm
01:20 AM 45.7°F7.6°C 37.4°F3.0°C 70% 4.0 mph NE6.4 kmh NE 5.6 mph9.0 kmh 29.36 in994.2 mb 0.00 in0.0 mm 0.00 in0.0 mm 0.00 in0.0 mm
01:15 AM 45.7°F7.6°C 37.4°F3.0°C 70% 4.6 mph NE7.4 kmh NE 7.4 mph11.9 kmh 29.36 in994.2 mb 0.00 in0.0 mm 0.00 in0.0 mm 0.00 in0.0 mm
01:10 AM 45.9°F7.7°C 37.4°F3.0°C 70% 5.4 mph NE8.7 kmh NE 7.4 mph11.9 kmh 29.36 in994.2 mb 0.00 in0.0 mm 0.00 in0.0 mm 0.00 in0.0 mm
01:05 AM 45.9°F7.7°C 35.6°F2.0°C 69% 5.4 mph NE8.7 kmh NE 6.9 mph11.1 kmh 29.36 in994.2 mb 0.00 in0.0 mm 0.00 in0.0 mm 0.00 in0.0 mm
01:00 AM 45.7°F7.6°C 35.6°F2.0°C 69% 3.8 mph N6.1 kmh N 5.6 mph9.0 kmh 29.36 in994.2 mb 0.00 in0.0 mm 0.00 in0.0 mm 0.00 in0.0 mm
12:55 AM 45.3°F7.4°C 35.6°F2.0°C 69% 2.5 mph N4.0 kmh N 4.3 mph6.9 kmh 29.36 in994.2 mb 0.00 in0.0 mm 0.00 in0.0 mm 0.00 in0.0 mm
12:50 AM 45.5°F7.5°C 35.6°F2.0°C 69% 2.3 mph NE3.7 kmh NE 3.8 mph6.1 kmh 29.39 in995.3 mb 0.00 in0.0 mm 0.00 in0.0 mm 0.00 in0.0 mm
12:45 AM 45.7°F7.6°C 35.6°F2.0°C 69% 2.5 mph NE4.0 kmh NE 3.6 mph5.8 kmh 29.39 in995.3 mb 0.00 in0.0 mm 0.00 in0.0 mm 0.00 in0.0 mm
12:40 AM 45.7°F7.6°C 35.6°F2.0°C 69% 3.1 mph NE5.0 kmh NE 4.7 mph7.6 kmh 29.39 in995.3 mb 0.00 in0.0 mm 0.00 in0.0 mm 0.00 in0.0 mm
12:35 AM 45.9°F7.7°C 35.6°F2.0°C 69% 3.1 mph NE5.0 kmh NE 4.7 mph7.6 kmh 29.39 in995.3 mb 0.00 in0.0 mm 0.00 in0.0 mm 0.00 in0.0 mm
12:30 AM 45.9°F7.7°C 35.6°F2.0°C 69% 2.4 mph NE3.9 kmh NE 3.8 mph6.1 kmh 29.39 in995.3 mb 0.00 in0.0 mm 0.00 in0.0 mm 0.00 in0.0 mm
12:25 AM 46.0°F7.8°C 35.6°F2.0°C 69% 2.7 mph NE4.3 kmh NE 5.6 mph9.0 kmh 29.39 in995.3 mb 0.00 in0.0 mm 0.00 in0.0 mm 0.00 in0.0 mm
12:20 AM 46.0°F7.8°C 35.6°F2.0°C 69% 4.3 mph NE6.9 kmh NE 7.6 mph12.2 kmh 29.39 in995.3 mb 0.00 in0.0 mm 0.00 in0.0 mm 0.00 in0.0 mm
12:15 AM 46.0°F7.8°C 35.6°F2.0°C 68% 4.8 mph NE7.7 kmh NE 7.6 mph12.2 kmh 29.39 in995.3 mb 0.00 in0.0 mm 0.00 in0.0 mm 0.00 in0.0 mm
12:10 AM 46.0°F7.8°C 35.6°F2.0°C 68% 3.9 mph NE6.3 kmh NE 7.2 mph11.6 kmh 29.39 in995.3 mb 0.00 in0.0 mm 0.00 in0.0 mm 0.00 in0.0 mm
12:05 AM 46.2°F7.9°C 37.4°F3.0°C 68% 4.3 mph NE6.9 kmh NE 6.0 mph9.7 kmh 29.39 in995.3 mb 0.00 in0.0 mm 0.00 in0.0 mm 0.00 in0.0 mm
12:00 AM 46.2°F7.9°C 37.4°F3.0°C 68% 4.2 mph NNE6.8 kmh NNE 6.0 mph9.7 kmh 29.39 in995.3 mb 0.00 in0.0 mm 0.00 in0.0 mm 0.00 in0.0 mm